Terminal Aerodrome Forecast
Issued by NWS Twin Cities, MN

Home | Current Version | Previous Version | Graphics & Text | Print | Product List | Glossary On
Versions: 1 2 3 4 5 6 7 8 9 10 11 12 13 14 15 16 17 18 19 20 21 22 23 24 25
000
FTUS43 KMPX 181900 AAA
TAFEAU
TAF AMD
KEAU 181926Z 1819/1918 19007KT P6SM VCTS BKN028CB
      TEMPO 1820/1822 2SM TSRA BKN014CB OVC025
     FM190200 18004KT 4SM BR OVC030
     FM190800 22003KT 3SM BR OVC007
      TEMPO 1908/1912 1SM BR OVC003
     FM191500 32006KT P6SM VCSH OVC015=

USA.gov is the U.S. government's official web portal to all federal, state and local government web resources and services.